sensor_id;sensor_type;location;lat;lon;timestamp;temperature;humidity
23114;DHT22;11726;50.122;8.832;2023-12-07T00:02:03;3.40;99.90
23114;DHT22;11726;50.122;8.832;2023-12-07T00:04:30;3.40;99.90
23114;DHT22;11726;50.122;8.832;2023-12-07T00:06:57;3.40;99.90
23114;DHT22;11726;50.122;8.832;2023-12-07T00:09:24;3.30;99.90
23114;DHT22;11726;50.122;8.832;2023-12-07T00:11:50;3.30;99.90
23114;DHT22;11726;50.122;8.832;2023-12-07T00:14:17;3.40;99.90
23114;DHT22;11726;50.122;8.832;2023-12-07T00:16:44;3.30;99.90
23114;DHT22;11726;50.122;8.832;2023-12-07T00:19:11;3.30;99.90
23114;DHT22;11726;50.122;8.832;2023-12-07T00:21:37;3.20;99.90
23114;DHT22;11726;50.122;8.832;2023-12-07T00:24:04;3.20;99.90
23114;DHT22;11726;50.122;8.832;2023-12-07T00:26:31;3.10;99.90
23114;DHT22;11726;50.122;8.832;2023-12-07T00:28:58;3.10;99.90
23114;DHT22;11726;50.122;8.832;2023-12-07T00:31:25;3.10;99.90
23114;DHT22;11726;50.122;8.832;2023-12-07T00:33:52;3.00;99.90
23114;DHT22;11726;50.122;8.832;2023-12-07T00:36:19;3.10;99.90
23114;DHT22;11726;50.122;8.832;2023-12-07T00:38:46;3.10;99.90
23114;DHT22;11726;50.122;8.832;2023-12-07T00:41:13;3.10;99.90
23114;DHT22;11726;50.122;8.832;2023-12-07T00:43:39;3.10;99.90
23114;DHT22;11726;50.122;8.832;2023-12-07T00:46:07;3.10;99.90
23114;DHT22;11726;50.122;8.832;2023-12-07T00:48:34;3.10;99.90
23114;DHT22;11726;50.122;8.832;2023-12-07T00:51:01;3.10;99.90
23114;DHT22;11726;50.122;8.832;2023-12-07T00:53:29;3.00;99.90
23114;DHT22;11726;50.122;8.832;2023-12-07T00:55:55;2.90;99.90
23114;DHT22;11726;50.122;8.832;2023-12-07T00:58:22;3.00;99.90
23114;DHT22;11726;50.122;8.832;2023-12-07T01:00:49;3.00;99.90
23114;DHT22;11726;50.122;8.832;2023-12-07T01:03:16;3.00;99.90
23114;DHT22;11726;50.122;8.832;2023-12-07T01:05:42;3.00;99.90
23114;DHT22;11726;50.122;8.832;2023-12-07T01:08:09;2.90;99.90
23114;DHT22;11726;50.122;8.832;2023-12-07T01:10:36;2.90;99.90
23114;DHT22;11726;50.122;8.832;2023-12-07T01:13:03;2.80;99.90
23114;DHT22;11726;50.122;8.832;2023-12-07T01:15:29;2.80;99.90
23114;DHT22;11726;50.122;8.832;2023-12-07T01:17:56;2.70;99.90
23114;DHT22;11726;50.122;8.832;2023-12-07T01:20:23;2.70;99.90
23114;DHT22;11726;50.122;8.832;2023-12-07T01:22:50;2.70;99.90
23114;DHT22;11726;50.122;8.832;2023-12-07T01:25:17;2.70;99.90
23114;DHT22;11726;50.122;8.832;2023-12-07T01:27:48;2.70;99.90
23114;DHT22;11726;50.122;8.832;2023-12-07T01:30:15;2.60;99.90
23114;DHT22;11726;50.122;8.832;2023-12-07T01:32:42;2.60;99.90
23114;DHT22;11726;50.122;8.832;2023-12-07T01:35:09;2.50;99.90
23114;DHT22;11726;50.122;8.832;2023-12-07T01:37:36;2.50;99.90
23114;DHT22;11726;50.122;8.832;2023-12-07T01:40:03;2.40;99.90
23114;DHT22;11726;50.122;8.832;2023-12-07T01:42:32;2.40;99.90
23114;DHT22;11726;50.122;8.832;2023-12-07T01:44:59;2.40;99.90
23114;DHT22;11726;50.122;8.832;2023-12-07T01:47:26;2.30;99.90
23114;DHT22;11726;50.122;8.832;2023-12-07T01:49:53;2.30;99.90
23114;DHT22;11726;50.122;8.832;2023-12-07T01:52:20;2.40;99.90
23114;DHT22;11726;50.122;8.832;2023-12-07T01:54:49;2.40;99.90
23114;DHT22;11726;50.122;8.832;2023-12-07T01:57:15;2.40;99.90
23114;DHT22;11726;50.122;8.832;2023-12-07T01:59:42;2.30;99.90
23114;DHT22;11726;50.122;8.832;2023-12-07T02:02:09;2.30;99.90
23114;DHT22;11726;50.122;8.832;2023-12-07T02:04:36;2.30;99.90
23114;DHT22;11726;50.122;8.832;2023-12-07T02:07:03;2.20;99.90
23114;DHT22;11726;50.122;8.832;2023-12-07T02:09:30;2.20;99.90
23114;DHT22;11726;50.122;8.832;2023-12-07T02:11:59;2.20;99.90
23114;DHT22;11726;50.122;8.832;2023-12-07T02:14:26;2.30;99.90
23114;DHT22;11726;50.122;8.832;2023-12-07T02:17:01;2.30;99.90
23114;DHT22;11726;50.122;8.832;2023-12-07T02:22:48;2.20;99.90
23114;DHT22;11726;50.122;8.832;2023-12-07T02:25:18;2.20;99.90
23114;DHT22;11726;50.122;8.832;2023-12-07T02:27:45;2.20;99.90
23114;DHT22;11726;50.122;8.832;2023-12-07T02:30:13;2.20;99.90
23114;DHT22;11726;50.122;8.832;2023-12-07T02:32:41;2.20;99.90
23114;DHT22;11726;50.122;8.832;2023-12-07T02:35:10;2.20;99.90
23114;DHT22;11726;50.122;8.832;2023-12-07T02:37:48;2.20;99.90
23114;DHT22;11726;50.122;8.832;2023-12-07T02:40:22;2.10;99.90
23114;DHT22;11726;50.122;8.832;2023-12-07T02:42:50;2.10;99.90
23114;DHT22;11726;50.122;8.832;2023-12-07T02:45:18;1.90;99.90
23114;DHT22;11726;50.122;8.832;2023-12-07T02:47:44;1.70;99.90
23114;DHT22;11726;50.122;8.832;2023-12-07T02:50:12;1.70;99.90
23114;DHT22;11726;50.122;8.832;2023-12-07T02:52:40;1.70;99.90
23114;DHT22;11726;50.122;8.832;2023-12-07T02:55:07;1.70;99.90
23114;DHT22;11726;50.122;8.832;2023-12-07T02:57:34;1.70;99.90
23114;DHT22;11726;50.122;8.832;2023-12-07T03:00:03;1.70;99.90
23114;DHT22;11726;50.122;8.832;2023-12-07T03:02:39;1.60;99.90
23114;DHT22;11726;50.122;8.832;2023-12-07T03:05:07;1.60;99.90
23114;DHT22;11726;50.122;8.832;2023-12-07T03:07:34;1.50;99.90
23114;DHT22;11726;50.122;8.832;2023-12-07T03:10:02;1.60;99.90
23114;DHT22;11726;50.122;8.832;2023-12-07T03:12:30;1.50;99.90
23114;DHT22;11726;50.122;8.832;2023-12-07T03:14:56;1.40;99.90
23114;DHT22;11726;50.122;8.832;2023-12-07T03:17:23;1.40;99.90
23114;DHT22;11726;50.122;8.832;2023-12-07T03:19:50;1.40;99.90
23114;DHT22;11726;50.122;8.832;2023-12-07T03:22:16;1.40;99.90
23114;DHT22;11726;50.122;8.832;2023-12-07T03:24:50;1.30;99.90
23114;DHT22;11726;50.122;8.832;2023-12-07T03:27:17;1.00;99.90
23114;DHT22;11726;50.122;8.832;2023-12-07T03:29:44;0.90;99.90
23114;DHT22;11726;50.122;8.832;2023-12-07T03:32:10;1.00;99.90
23114;DHT22;11726;50.122;8.832;2023-12-07T03:34:37;1.00;99.90
23114;DHT22;11726;50.122;8.832;2023-12-07T03:37:04;1.00;99.90
23114;DHT22;11726;50.122;8.832;2023-12-07T03:39:32;1.10;99.90
23114;DHT22;11726;50.122;8.832;2023-12-07T03:42:00;1.10;99.90
23114;DHT22;11726;50.122;8.832;2023-12-07T03:44:26;1.20;99.90
23114;DHT22;11726;50.122;8.832;2023-12-07T03:46:55;1.10;99.90
23114;DHT22;11726;50.122;8.832;2023-12-07T03:49:21;1.10;99.90
23114;DHT22;11726;50.122;8.832;2023-12-07T03:51:48;1.00;99.90
23114;DHT22;11726;50.122;8.832;2023-12-07T03:54:15;1.00;99.90
23114;DHT22;11726;50.122;8.832;2023-12-07T03:56:42;0.90;99.90
23114;DHT22;11726;50.122;8.832;2023-12-07T03:59:08;0.90;99.90
23114;DHT22;11726;50.122;8.832;2023-12-07T04:01:35;0.90;99.90
23114;DHT22;11726;50.122;8.832;2023-12-07T04:04:02;0.90;99.90
23114;DHT22;11726;50.122;8.832;2023-12-07T04:06:29;0.90;99.90
23114;DHT22;11726;50.122;8.832;2023-12-07T04:08:56;0.90;99.90
23114;DHT22;11726;50.122;8.832;2023-12-07T04:11:22;0.90;99.90
23114;DHT22;11726;50.122;8.832;2023-12-07T04:13:49;0.80;99.90
23114;DHT22;11726;50.122;8.832;2023-12-07T04:16:16;0.80;99.90
23114;DHT22;11726;50.122;8.832;2023-12-07T04:18:43;0.80;99.90
23114;DHT22;11726;50.122;8.832;2023-12-07T04:21:10;0.70;99.90
23114;DHT22;11726;50.122;8.832;2023-12-07T04:23:37;0.60;99.90
23114;DHT22;11726;50.122;8.832;2023-12-07T04:26:03;0.70;99.90
23114;DHT22;11726;50.122;8.832;2023-12-07T04:28:30;0.60;99.90
23114;DHT22;11726;50.122;8.832;2023-12-07T04:30:57;0.40;99.90
23114;DHT22;11726;50.122;8.832;2023-12-07T04:33:24;0.40;99.90
23114;DHT22;11726;50.122;8.832;2023-12-07T04:35:51;0.50;99.90
23114;DHT22;11726;50.122;8.832;2023-12-07T04:38:17;0.60;99.90
23114;DHT22;11726;50.122;8.832;2023-12-07T04:40:44;0.70;99.90
23114;DHT22;11726;50.122;8.832;2023-12-07T04:43:11;0.70;99.90
23114;DHT22;11726;50.122;8.832;2023-12-07T04:45:37;0.70;99.90
23114;DHT22;11726;50.122;8.832;2023-12-07T04:48:05;0.70;99.90
23114;DHT22;11726;50.122;8.832;2023-12-07T04:50:32;0.60;99.90
23114;DHT22;11726;50.122;8.832;2023-12-07T04:52:58;0.60;99.90
23114;DHT22;11726;50.122;8.832;2023-12-07T04:55:25;0.60;99.90
23114;DHT22;11726;50.122;8.832;2023-12-07T04:57:53;0.70;99.90
23114;DHT22;11726;50.122;8.832;2023-12-07T05:00:20;0.70;99.90
23114;DHT22;11726;50.122;8.832;2023-12-07T05:02:47;0.60;99.90
23114;DHT22;11726;50.122;8.832;2023-12-07T05:05:14;0.60;99.90
23114;DHT22;11726;50.122;8.832;2023-12-07T05:07:41;0.60;99.90
23114;DHT22;11726;50.122;8.832;2023-12-07T05:10:08;0.70;99.90
23114;DHT22;11726;50.122;8.832;2023-12-07T05:12:36;0.60;99.90
23114;DHT22;11726;50.122;8.832;2023-12-07T05:15:02;0.70;99.90
23114;DHT22;11726;50.122;8.832;2023-12-07T05:17:31;0.70;99.90
23114;DHT22;11726;50.122;8.832;2023-12-07T05:19:57;0.70;99.90
23114;DHT22;11726;50.122;8.832;2023-12-07T05:22:24;0.70;99.90
23114;DHT22;11726;50.122;8.832;2023-12-07T05:24:51;0.70;99.90
23114;DHT22;11726;50.122;8.832;2023-12-07T05:27:18;0.70;99.90
23114;DHT22;11726;50.122;8.832;2023-12-07T05:29:45;0.80;99.90
23114;DHT22;11726;50.122;8.832;2023-12-07T05:32:11;0.80;99.90
23114;DHT22;11726;50.122;8.832;2023-12-07T05:34:38;0.80;99.90
23114;DHT22;11726;50.122;8.832;2023-12-07T05:37:05;0.80;99.90
23114;DHT22;11726;50.122;8.832;2023-12-07T05:39:32;0.80;99.90
23114;DHT22;11726;50.122;8.832;2023-12-07T05:41:59;0.80;99.90
23114;DHT22;11726;50.122;8.832;2023-12-07T05:44:25;0.80;99.90
23114;DHT22;11726;50.122;8.832;2023-12-07T05:46:52;0.80;99.90
23114;DHT22;11726;50.122;8.832;2023-12-07T05:49:18;0.80;99.90
23114;DHT22;11726;50.122;8.832;2023-12-07T05:51:45;0.90;99.90
23114;DHT22;11726;50.122;8.832;2023-12-07T05:54:12;1.00;99.90
23114;DHT22;11726;50.122;8.832;2023-12-07T05:56:39;1.00;99.90
23114;DHT22;11726;50.122;8.832;2023-12-07T05:59:06;1.00;99.90
23114;DHT22;11726;50.122;8.832;2023-12-07T06:01:33;0.90;99.90
23114;DHT22;11726;50.122;8.832;2023-12-07T06:04:00;0.90;99.90
23114;DHT22;11726;50.122;8.832;2023-12-07T06:06:27;0.90;99.90
23114;DHT22;11726;50.122;8.832;2023-12-07T06:08:53;0.90;99.90
23114;DHT22;11726;50.122;8.832;2023-12-07T06:11:20;0.90;99.90
23114;DHT22;11726;50.122;8.832;2023-12-07T06:13:47;1.00;99.90
23114;DHT22;11726;50.122;8.832;2023-12-07T06:16:14;1.00;99.90
23114;DHT22;11726;50.122;8.832;2023-12-07T06:18:41;0.90;99.90
23114;DHT22;11726;50.122;8.832;2023-12-07T06:21:08;0.90;99.90
23114;DHT22;11726;50.122;8.832;2023-12-07T06:23:34;0.90;99.90
23114;DHT22;11726;50.122;8.832;2023-12-07T06:26:02;0.80;99.90
23114;DHT22;11726;50.122;8.832;2023-12-07T06:28:29;0.90;99.90
23114;DHT22;11726;50.122;8.832;2023-12-07T06:30:55;0.80;99.90
23114;DHT22;11726;50.122;8.832;2023-12-07T06:33:23;0.90;99.90
23114;DHT22;11726;50.122;8.832;2023-12-07T06:35:50;0.90;99.90
23114;DHT22;11726;50.122;8.832;2023-12-07T06:38:17;0.80;99.90
23114;DHT22;11726;50.122;8.832;2023-12-07T06:40:47;0.80;99.90
23114;DHT22;11726;50.122;8.832;2023-12-07T06:43:14;0.80;99.90
23114;DHT22;11726;50.122;8.832;2023-12-07T06:45:40;0.70;99.90
23114;DHT22;11726;50.122;8.832;2023-12-07T06:48:07;0.70;99.90
23114;DHT22;11726;50.122;8.832;2023-12-07T06:50:34;0.60;99.90
23114;DHT22;11726;50.122;8.832;2023-12-07T06:53:01;0.60;99.90
23114;DHT22;11726;50.122;8.832;2023-12-07T06:55:28;0.50;99.90
23114;DHT22;11726;50.122;8.832;2023-12-07T06:57:55;0.50;99.90
23114;DHT22;11726;50.122;8.832;2023-12-07T07:00:22;0.50;99.90
23114;DHT22;11726;50.122;8.832;2023-12-07T07:02:49;0.60;99.90
23114;DHT22;11726;50.122;8.832;2023-12-07T07:05:16;0.60;99.90
23114;DHT22;11726;50.122;8.832;2023-12-07T07:07:42;0.50;99.90
23114;DHT22;11726;50.122;8.832;2023-12-07T07:10:09;0.60;99.90
23114;DHT22;11726;50.122;8.832;2023-12-07T07:12:36;0.50;99.90
23114;DHT22;11726;50.122;8.832;2023-12-07T07:15:04;0.40;99.90
23114;DHT22;11726;50.122;8.832;2023-12-07T07:17:31;0.50;99.90
23114;DHT22;11726;50.122;8.832;2023-12-07T07:19:59;0.50;99.90
23114;DHT22;11726;50.122;8.832;2023-12-07T07:22:26;0.60;99.90
23114;DHT22;11726;50.122;8.832;2023-12-07T07:24:52;0.50;99.90
23114;DHT22;11726;50.122;8.832;2023-12-07T07:27:19;0.60;99.90
23114;DHT22;11726;50.122;8.832;2023-12-07T07:29:46;0.60;99.90
23114;DHT22;11726;50.122;8.832;2023-12-07T07:32:12;0.60;99.90
23114;DHT22;11726;50.122;8.832;2023-12-07T07:34:39;0.70;99.90
23114;DHT22;11726;50.122;8.832;2023-12-07T07:37:06;0.80;99.90
23114;DHT22;11726;50.122;8.832;2023-12-07T07:39:36;0.80;99.90
23114;DHT22;11726;50.122;8.832;2023-12-07T07:42:03;0.90;99.90
23114;DHT22;11726;50.122;8.832;2023-12-07T07:44:31;0.90;99.90
23114;DHT22;11726;50.122;8.832;2023-12-07T07:46:57;0.90;99.90
23114;DHT22;11726;50.122;8.832;2023-12-07T07:49:24;0.90;99.90
23114;DHT22;11726;50.122;8.832;2023-12-07T07:51:51;1.00;99.90
23114;DHT22;11726;50.122;8.832;2023-12-07T07:54:18;0.90;99.90
23114;DHT22;11726;50.122;8.832;2023-12-07T07:56:44;0.90;99.90
23114;DHT22;11726;50.122;8.832;2023-12-07T07:59:11;0.90;99.90
23114;DHT22;11726;50.122;8.832;2023-12-07T08:01:38;0.90;99.90
23114;DHT22;11726;50.122;8.832;2023-12-07T08:04:04;1.00;99.90
23114;DHT22;11726;50.122;8.832;2023-12-07T08:06:31;1.00;99.90
23114;DHT22;11726;50.122;8.832;2023-12-07T08:09:03;1.00;99.90
23114;DHT22;11726;50.122;8.832;2023-12-07T08:11:30;1.10;99.90
23114;DHT22;11726;50.122;8.832;2023-12-07T08:13:56;1.10;99.90
23114;DHT22;11726;50.122;8.832;2023-12-07T08:16:23;1.10;99.90
23114;DHT22;11726;50.122;8.832;2023-12-07T08:18:50;1.10;99.90
23114;DHT22;11726;50.122;8.832;2023-12-07T08:21:23;1.20;99.90
23114;DHT22;11726;50.122;8.832;2023-12-07T08:23:56;1.20;99.90
23114;DHT22;11726;50.122;8.832;2023-12-07T08:26:23;1.20;99.90
23114;DHT22;11726;50.122;8.832;2023-12-07T08:28:50;1.30;99.90
23114;DHT22;11726;50.122;8.832;2023-12-07T08:31:20;1.40;99.90
23114;DHT22;11726;50.122;8.832;2023-12-07T08:33:47;1.30;99.90
23114;DHT22;11726;50.122;8.832;2023-12-07T08:36:13;1.40;99.90
23114;DHT22;11726;50.122;8.832;2023-12-07T08:38:43;1.50;99.90
23114;DHT22;11726;50.122;8.832;2023-12-07T08:41:10;1.50;99.90
23114;DHT22;11726;50.122;8.832;2023-12-07T08:43:36;1.50;99.90
23114;DHT22;11726;50.122;8.832;2023-12-07T08:46:03;1.50;99.90
23114;DHT22;11726;50.122;8.832;2023-12-07T08:48:31;1.60;99.90
23114;DHT22;11726;50.122;8.832;2023-12-07T08:50:58;1.60;99.90
23114;DHT22;11726;50.122;8.832;2023-12-07T08:53:25;1.70;99.90
23114;DHT22;11726;50.122;8.832;2023-12-07T08:55:53;1.70;99.90
23114;DHT22;11726;50.122;8.832;2023-12-07T08:58:20;1.80;99.90
23114;DHT22;11726;50.122;8.832;2023-12-07T09:00:47;1.80;99.90
23114;DHT22;11726;50.122;8.832;2023-12-07T09:03:14;1.90;99.90
23114;DHT22;11726;50.122;8.832;2023-12-07T09:05:40;1.90;99.90
23114;DHT22;11726;50.122;8.832;2023-12-07T09:08:07;2.00;99.90
23114;DHT22;11726;50.122;8.832;2023-12-07T09:10:34;2.10;99.90
23114;DHT22;11726;50.122;8.832;2023-12-07T09:13:00;2.20;99.90
23114;DHT22;11726;50.122;8.832;2023-12-07T09:15:27;2.30;99.90
23114;DHT22;11726;50.122;8.832;2023-12-07T09:17:54;2.40;99.90
23114;DHT22;11726;50.122;8.832;2023-12-07T09:20:21;2.50;99.90
23114;DHT22;11726;50.122;8.832;2023-12-07T09:22:48;2.40;99.90
23114;DHT22;11726;50.122;8.832;2023-12-07T09:25:16;2.50;99.90
23114;DHT22;11726;50.122;8.832;2023-12-07T09:27:43;2.50;99.90
23114;DHT22;11726;50.122;8.832;2023-12-07T09:30:10;2.60;99.90
23114;DHT22;11726;50.122;8.832;2023-12-07T09:32:41;2.60;99.90
23114;DHT22;11726;50.122;8.832;2023-12-07T09:35:11;2.60;99.90
23114;DHT22;11726;50.122;8.832;2023-12-07T09:37:48;2.60;99.90
23114;DHT22;11726;50.122;8.832;2023-12-07T09:40:20;2.60;99.90
23114;DHT22;11726;50.122;8.832;2023-12-07T09:42:49;2.60;99.90
23114;DHT22;11726;50.122;8.832;2023-12-07T09:45:16;2.70;99.90
23114;DHT22;11726;50.122;8.832;2023-12-07T09:47:49;2.70;99.90
23114;DHT22;11726;50.122;8.832;2023-12-07T09:50:18;2.70;99.90
23114;DHT22;11726;50.122;8.832;2023-12-07T09:52:45;2.70;99.90
23114;DHT22;11726;50.122;8.832;2023-12-07T09:55:27;2.80;99.90
23114;DHT22;11726;50.122;8.832;2023-12-07T09:57:54;2.80;99.90
23114;DHT22;11726;50.122;8.832;2023-12-07T10:00:23;2.80;99.90
23114;DHT22;11726;50.122;8.832;2023-12-07T10:02:51;2.90;99.90
23114;DHT22;11726;50.122;8.832;2023-12-07T10:05:20;2.90;99.90
23114;DHT22;11726;50.122;8.832;2023-12-07T10:07:48;2.80;99.90
23114;DHT22;11726;50.122;8.832;2023-12-07T10:10:17;2.70;99.90
23114;DHT22;11726;50.122;8.832;2023-12-07T10:12:55;2.80;99.90
23114;DHT22;11726;50.122;8.832;2023-12-07T10:15:23;2.90;99.90
23114;DHT22;11726;50.122;8.832;2023-12-07T10:17:56;2.90;99.90
23114;DHT22;11726;50.122;8.832;2023-12-07T10:20:28;2.70;99.90
23114;DHT22;11726;50.122;8.832;2023-12-07T10:23:09;2.80;99.90
23114;DHT22;11726;50.122;8.832;2023-12-07T10:25:38;2.80;99.90
23114;DHT22;11726;50.122;8.832;2023-12-07T10:28:05;2.90;99.90
23114;DHT22;11726;50.122;8.832;2023-12-07T10:30:36;3.00;99.90
23114;DHT22;11726;50.122;8.832;2023-12-07T10:33:05;3.00;99.90
23114;DHT22;11726;50.122;8.832;2023-12-07T10:35:44;3.00;99.90
23114;DHT22;11726;50.122;8.832;2023-12-07T10:38:11;3.10;99.90
23114;DHT22;11726;50.122;8.832;2023-12-07T10:40:39;3.10;99.90
23114;DHT22;11726;50.122;8.832;2023-12-07T10:43:07;3.10;99.90
23114;DHT22;11726;50.122;8.832;2023-12-07T10:45:35;3.10;99.90
23114;DHT22;11726;50.122;8.832;2023-12-07T10:48:06;3.10;99.90
23114;DHT22;11726;50.122;8.832;2023-12-07T10:50:36;3.00;99.90
23114;DHT22;11726;50.122;8.832;2023-12-07T10:53:19;3.00;99.90
23114;DHT22;11726;50.122;8.832;2023-12-07T10:55:56;3.00;99.90
23114;DHT22;11726;50.122;8.832;2023-12-07T10:58:24;3.00;99.90
23114;DHT22;11726;50.122;8.832;2023-12-07T11:00:52;3.00;99.90
23114;DHT22;11726;50.122;8.832;2023-12-07T11:03:19;2.90;99.90
23114;DHT22;11726;50.122;8.832;2023-12-07T11:05:50;2.90;99.90
23114;DHT22;11726;50.122;8.832;2023-12-07T11:08:27;3.00;99.90
23114;DHT22;11726;50.122;8.832;2023-12-07T11:11:04;3.10;99.90
23114;DHT22;11726;50.122;8.832;2023-12-07T11:13:35;3.20;99.90
23114;DHT22;11726;50.122;8.832;2023-12-07T11:16:03;3.20;99.90
23114;DHT22;11726;50.122;8.832;2023-12-07T11:18:30;3.20;99.90
23114;DHT22;11726;50.122;8.832;2023-12-07T11:20:58;3.30;99.90
23114;DHT22;11726;50.122;8.832;2023-12-07T11:23:27;3.10;99.90
23114;DHT22;11726;50.122;8.832;2023-12-07T11:25:55;3.20;99.90
23114;DHT22;11726;50.122;8.832;2023-12-07T11:28:36;3.20;99.90
23114;DHT22;11726;50.122;8.832;2023-12-07T11:31:03;3.30;99.90
23114;DHT22;11726;50.122;8.832;2023-12-07T11:33:30;3.50;99.90
23114;DHT22;11726;50.122;8.832;2023-12-07T11:36:02;3.40;99.90
23114;DHT22;11726;50.122;8.832;2023-12-07T11:38:29;3.50;99.90
23114;DHT22;11726;50.122;8.832;2023-12-07T11:40:56;3.50;99.90
23114;DHT22;11726;50.122;8.832;2023-12-07T11:46:00;3.70;99.90
23114;DHT22;11726;50.122;8.832;2023-12-07T11:48:27;3.80;99.90
23114;DHT22;11726;50.122;8.832;2023-12-07T11:50:57;3.80;99.90
23114;DHT22;11726;50.122;8.832;2023-12-07T11:53:27;3.80;99.90
23114;DHT22;11726;50.122;8.832;2023-12-07T11:55:54;3.70;99.90
23114;DHT22;11726;50.122;8.832;2023-12-07T11:58:21;3.70;99.90
23114;DHT22;11726;50.122;8.832;2023-12-07T12:00:48;3.70;99.90
23114;DHT22;11726;50.122;8.832;2023-12-07T12:03:17;3.80;99.90
23114;DHT22;11726;50.122;8.832;2023-12-07T12:05:44;3.70;99.90
23114;DHT22;11726;50.122;8.832;2023-12-07T12:08:12;3.80;99.90
23114;DHT22;11726;50.122;8.832;2023-12-07T12:10:40;3.90;99.90
23114;DHT22;11726;50.122;8.832;2023-12-07T12:13:10;3.90;99.90
23114;DHT22;11726;50.122;8.832;2023-12-07T12:15:39;3.80;99.90
23114;DHT22;11726;50.122;8.832;2023-12-07T12:18:07;3.80;99.90
23114;DHT22;11726;50.122;8.832;2023-12-07T12:20:35;3.80;99.90
23114;DHT22;11726;50.122;8.832;2023-12-07T12:23:02;3.80;99.90
23114;DHT22;11726;50.122;8.832;2023-12-07T12:25:30;3.90;99.90
23114;DHT22;11726;50.122;8.832;2023-12-07T12:27:58;3.90;99.90
23114;DHT22;11726;50.122;8.832;2023-12-07T12:30:28;3.90;99.90
23114;DHT22;11726;50.122;8.832;2023-12-07T12:32:55;3.80;99.90
23114;DHT22;11726;50.122;8.832;2023-12-07T12:35:23;3.70;99.90
23114;DHT22;11726;50.122;8.832;2023-12-07T12:37:53;3.80;99.90
23114;DHT22;11726;50.122;8.832;2023-12-07T12:40:22;4.00;99.90
23114;DHT22;11726;50.122;8.832;2023-12-07T12:42:51;3.90;99.90
23114;DHT22;11726;50.122;8.832;2023-12-07T12:45:22;3.80;99.90
23114;DHT22;11726;50.122;8.832;2023-12-07T12:47:48;3.80;99.90
23114;DHT22;11726;50.122;8.832;2023-12-07T12:50:38;3.80;99.90
23114;DHT22;11726;50.122;8.832;2023-12-07T12:53:08;3.90;99.90
23114;DHT22;11726;50.122;8.832;2023-12-07T12:55:38;4.00;99.90
23114;DHT22;11726;50.122;8.832;2023-12-07T12:58:07;3.90;99.90
23114;DHT22;11726;50.122;8.832;2023-12-07T13:00:37;4.10;99.90
23114;DHT22;11726;50.122;8.832;2023-12-07T13:03:05;4.30;99.90
23114;DHT22;11726;50.122;8.832;2023-12-07T13:05:33;4.20;99.90
23114;DHT22;11726;50.122;8.832;2023-12-07T13:08:01;4.30;99.90
23114;DHT22;11726;50.122;8.832;2023-12-07T13:10:40;4.30;99.90
23114;DHT22;11726;50.122;8.832;2023-12-07T13:13:07;4.00;99.90
23114;DHT22;11726;50.122;8.832;2023-12-07T13:15:34;3.90;99.90
23114;DHT22;11726;50.122;8.832;2023-12-07T13:18:01;3.80;99.90
23114;DHT22;11726;50.122;8.832;2023-12-07T13:20:33;3.70;99.90
23114;DHT22;11726;50.122;8.832;2023-12-07T13:23:19;3.80;99.90
23114;DHT22;11726;50.122;8.832;2023-12-07T13:25:47;3.80;99.90
23114;DHT22;11726;50.122;8.832;2023-12-07T13:28:14;3.70;99.90
23114;DHT22;11726;50.122;8.832;2023-12-07T13:30:40;3.80;99.90
23114;DHT22;11726;50.122;8.832;2023-12-07T13:33:07;3.70;99.90
23114;DHT22;11726;50.122;8.832;2023-12-07T13:35:51;3.60;99.90
23114;DHT22;11726;50.122;8.832;2023-12-07T13:38:21;3.50;99.90
23114;DHT22;11726;50.122;8.832;2023-12-07T13:40:48;3.60;99.90
23114;DHT22;11726;50.122;8.832;2023-12-07T13:43:16;3.70;99.90
23114;DHT22;11726;50.122;8.832;2023-12-07T13:45:44;3.70;99.90
23114;DHT22;11726;50.122;8.832;2023-12-07T13:48:11;3.70;99.90
23114;DHT22;11726;50.122;8.832;2023-12-07T13:50:40;3.70;99.90
23114;DHT22;11726;50.122;8.832;2023-12-07T13:53:06;3.70;99.90
23114;DHT22;11726;50.122;8.832;2023-12-07T13:55:37;3.60;99.90
23114;DHT22;11726;50.122;8.832;2023-12-07T13:58:04;3.70;99.90
23114;DHT22;11726;50.122;8.832;2023-12-07T14:00:30;3.70;99.90
23114;DHT22;11726;50.122;8.832;2023-12-07T14:02:58;3.70;99.90
23114;DHT22;11726;50.122;8.832;2023-12-07T14:05:25;3.70;99.90
23114;DHT22;11726;50.122;8.832;2023-12-07T14:07:52;3.80;99.90
23114;DHT22;11726;50.122;8.832;2023-12-07T14:10:19;3.80;99.90
23114;DHT22;11726;50.122;8.832;2023-12-07T14:12:46;3.80;99.90
23114;DHT22;11726;50.122;8.832;2023-12-07T14:15:12;3.80;99.90
23114;DHT22;11726;50.122;8.832;2023-12-07T14:17:39;3.70;99.90
23114;DHT22;11726;50.122;8.832;2023-12-07T14:20:16;3.70;99.90
23114;DHT22;11726;50.122;8.832;2023-12-07T14:23:02;3.60;99.90
23114;DHT22;11726;50.122;8.832;2023-12-07T14:25:31;3.60;99.90
23114;DHT22;11726;50.122;8.832;2023-12-07T14:27:58;3.60;99.90
23114;DHT22;11726;50.122;8.832;2023-12-07T14:30:25;3.70;99.90
23114;DHT22;11726;50.122;8.832;2023-12-07T14:32:51;3.60;99.90
23114;DHT22;11726;50.122;8.832;2023-12-07T14:35:20;3.60;99.90
23114;DHT22;11726;50.122;8.832;2023-12-07T14:37:47;3.60;99.90
23114;DHT22;11726;50.122;8.832;2023-12-07T14:40:14;3.60;99.90
23114;DHT22;11726;50.122;8.832;2023-12-07T14:42:44;3.60;99.90
23114;DHT22;11726;50.122;8.832;2023-12-07T14:45:12;3.50;99.90
23114;DHT22;11726;50.122;8.832;2023-12-07T14:47:40;3.50;99.90
23114;DHT22;11726;50.122;8.832;2023-12-07T14:50:07;3.40;99.90
23114;DHT22;11726;50.122;8.832;2023-12-07T14:52:34;3.30;99.90
23114;DHT22;11726;50.122;8.832;2023-12-07T14:55:01;3.30;99.90
23114;DHT22;11726;50.122;8.832;2023-12-07T14:57:31;3.30;99.90
23114;DHT22;11726;50.122;8.832;2023-12-07T14:59:57;3.30;99.90
23114;DHT22;11726;50.122;8.832;2023-12-07T15:02:25;3.20;99.90
23114;DHT22;11726;50.122;8.832;2023-12-07T15:04:52;3.20;99.90
23114;DHT22;11726;50.122;8.832;2023-12-07T15:07:19;3.20;99.90
23114;DHT22;11726;50.122;8.832;2023-12-07T15:09:46;3.10;99.90
23114;DHT22;11726;50.122;8.832;2023-12-07T15:12:15;3.10;99.90
23114;DHT22;11726;50.122;8.832;2023-12-07T15:14:44;3.00;99.90
23114;DHT22;11726;50.122;8.832;2023-12-07T15:17:12;3.00;99.90
23114;DHT22;11726;50.122;8.832;2023-12-07T15:19:39;3.00;99.90
23114;DHT22;11726;50.122;8.832;2023-12-07T15:22:08;3.00;99.90
23114;DHT22;11726;50.122;8.832;2023-12-07T15:24:35;2.90;99.90
23114;DHT22;11726;50.122;8.832;2023-12-07T15:27:06;2.90;99.90
23114;DHT22;11726;50.122;8.832;2023-12-07T15:29:33;2.90;99.90
23114;DHT22;11726;50.122;8.832;2023-12-07T15:32:02;2.90;99.90
23114;DHT22;11726;50.122;8.832;2023-12-07T15:34:29;2.80;99.90
23114;DHT22;11726;50.122;8.832;2023-12-07T15:37:05;2.80;99.90
23114;DHT22;11726;50.122;8.832;2023-12-07T15:39:32;2.80;99.90
23114;DHT22;11726;50.122;8.832;2023-12-07T15:41:59;2.80;99.90
23114;DHT22;11726;50.122;8.832;2023-12-07T15:44:28;2.80;99.90
23114;DHT22;11726;50.122;8.832;2023-12-07T15:46:57;2.80;99.90
23114;DHT22;11726;50.122;8.832;2023-12-07T15:49:24;2.80;99.90
23114;DHT22;11726;50.122;8.832;2023-12-07T15:51:52;2.80;99.90
23114;DHT22;11726;50.122;8.832;2023-12-07T15:54:24;2.70;99.90
23114;DHT22;11726;50.122;8.832;2023-12-07T15:57:04;2.80;99.90